Latest Coastal Weather Observations for Parndana

IDS60701

Issued at 4:21 pm CDT Sunday 11 December 2016 (issued every 10 minutes, with the page automatically refreshed every 10 minutes)

About coastal observations | Map of coastal stations | Coastal observations for SA | Marine services | Other Formats
Station Details ID: 022843 Name: PARNDANA CFS AWS Lat: -35.79 Lon: 137.25 Height: 165.0 m
Data from the previous 72 hours. | See also: Recent months at Parndana
Date/Time
CDT
Temp
°C
Wind Pressure Rain since
9am
mm
Weather Cloud Vis
km
Sea
Height
m
Swell
Dir  Spd
kts
Gust
kts
hPa Trend Height
m
Period
s
Dir
11/04:00pm 23.9 ESE 10 15 - - 0.0 - - - - - - -
11/03:30pm 24.7 E 11 14 - - 0.0 - - - - - - -
11/03:00pm 24.9 ESE 10 16 - - 0.0 - - - - - - -
11/02:30pm 25.0 E 10 16 - - 0.0 - - - - - - -
11/02:00pm 24.1 E 8 13 - - 0.0 - - - - - - -
11/01:30pm 23.5 E 9 16 - - 0.0 - - - - - - -
11/01:00pm 23.0 E 9 17 - - 0.0 - - - - - - -
11/12:30pm 22.7 E 10 15 - - 0.0 - - - - - - -
11/12:00pm 22.1 E 10 15 - - 0.0 - - - - - - -
11/11:30am 21.7 E 8 15 - - 0.0 - - - - - - -
11/11:00am 22.0 E 8 12 - - 0.0 - - - - - - -
11/10:30am 20.1 E 9 12 - - 0.0 - - - - - - -
11/10:00am 19.1 E 8 14 - - 0.0 - - - - - - -
11/09:30am 17.9 ENE 11 16 - - 0.0 - - - - - - -
11/09:00am 16.9 E 12 16 - - 0.0 - - - - - - -
11/08:30am 15.5 E 14 19 - - 0.0 - - - - - - -
11/08:00am 14.4 E 9 14 - - 0.0 - - - - - - -
11/07:30am 12.2 ESE 5 8 - - 0.0 - - - - - - -
11/07:00am 10.3 ESE 5 6 - - 0.0 - - - - - - -
11/06:30am 8.6 ESE 4 5 - - 0.0 - - - - - - -
11/06:00am 8.0 SE 5 5 - - 0.0 - - - - - - -
11/05:30am 7.8 ESE 5 6 - - 0.0 - - - - - - -
11/05:00am 8.0 SE 5 6 - - 0.0 - - - - - - -
11/04:30am 8.6 SE 4 6 - - 0.0 - - - - - - -
11/04:00am 9.1 SE 5 7 - - 0.0 - - - - - - -
11/03:30am 8.4 SE 6 7 - - 0.0 - - - - - - -
11/03:00am 8.3 SE 5 7 - - 0.0 - - - - - - -
11/02:30am 7.7 SSE 6 6 - - 0.0 - - - - - - -
11/02:00am 7.8 SSE 6 8 - - 0.0 - - - - - - -
11/01:30am 7.9 SSE 7 8 - - 0.0 - - - - - - -
11/01:00am 8.0 SE 7 8 - - 0.0 - - - - - - -
11/12:30am 8.0 SSE 7 8 - - 0.0 - - - - - - -
11/12:00am 8.2 SSE 6 7 - - 0.0 - - - - - - -
 
Date/Time
CDT
Temp
°C
Wind Pressure Rain since
9am
mm
Weather Cloud Vis
km
Sea
Height
m
Swell
Dir  Spd
kts
Gust
kts
hPa Trend Height
m
Period
s
Dir
10/11:30pm 8.5 SSE 6 7 - - 0.0 - - - - - - -
10/11:00pm 8.8 SSE 6 7 - - 0.0 - - - - - - -
10/10:30pm 9.3 SSE 7 8 - - 0.0 - - - - - - -
10/10:00pm 9.7 SSE 7 8 - - 0.0 - - - - - - -
10/09:30pm 10.8 SSE 7 10 - - 0.0 - - - - - - -
10/09:00pm 11.4 SSE 8 10 - - 0.0 - - - - - - -
10/08:30pm 12.7 SE 9 11 - - 0.0 - - - - - - -
10/08:00pm 13.9 SE 10 13 - - 0.0 - - - - - - -
10/07:30pm 15.0 SE 11 13 - - 0.0 - - - - - - -
10/07:00pm 15.6 SSE 12 17 - - 0.0 - - - - - - -
10/06:30pm 16.4 S 11 15 - - 0.0 - - - - - - -
10/06:00pm 16.8 SSE 12 16 - - 0.0 - - - - - - -
10/05:30pm 17.8 SSE 10 15 - - 0.0 - - - - - - -
10/05:00pm 16.7 SSE 12 17 - - 0.0 - - - - - - -
10/04:30pm 18.7 S 11 16 - - 0.0 - - - - - - -
10/04:00pm 18.5 SSE 11 16 - - 0.0 - - - - - - -
10/03:30pm 19.8 S 11 15 - - 0.0 - - - - - - -
10/03:00pm 19.8 SSE 12 18 - - 0.0 - - - - - - -
10/02:30pm 20.3 S 13 20 - - 0.0 - - - - - - -
10/02:00pm 21.0 SSE 10 17 - - 0.0 - - - - - - -
10/01:30pm 21.6 S 10 15 - - 0.0 - - - - - - -
10/01:00pm 21.0 SSE 9 14 - - 0.0 - - - - - - -
10/12:30pm 21.4 S 9 15 - - 0.0 - - - - - - -
10/12:00pm 20.4 SE 4 8 - - 0.0 - - - - - - -
10/11:30am 20.5 ENE 4 8 - - 0.0 - - - - - - -
10/11:00am 18.9 ESE 4 9 - - 0.0 - - - - - - -
10/10:30am 18.7 E 4 7 - - 0.0 - - - - - - -
10/10:00am 17.5 SE 5 7 - - 0.0 - - - - - - -
10/09:30am 16.6 ENE 5 10 - - 0.0 - - - - - - -
10/09:00am 15.5 ENE 5 8 - - 0.0 - - - - - - -
10/08:30am 14.8 ENE 6 9 - - 0.0 - - - - - - -
10/08:00am 13.6 ENE 6 9 - - 0.0 - - - - - - -
10/07:30am 11.3 ENE 3 5 - - 0.0 - - - - - - -
10/07:00am 9.7 E 3 3 - - 0.0 - - - - - - -
10/06:30am 8.2 E 3 3 - - 0.0 - - - - - - -
10/06:00am 6.9 E 4 5 - - 0.0 - - - - - - -
10/05:30am 6.1 SE 2 3 - - 0.0 - - - - - - -
10/05:00am 6.0 SSE 3 3 - - 0.0 - - - - - - -
10/04:30am 6.0 SSE 3 3 - - 0.0 - - - - - - -
10/04:00am 7.1 SE 4 5 - - 0.0 - - - - - - -
10/03:30am 6.0 S 3 3 - - 0.0 - - - - - - -
10/03:00am 5.4 SE 3 3 - - 0.0 - - - - - - -
10/02:30am 6.8 SE 3 3 - - 0.0 - - - - - - -
10/02:00am 6.8 SSE 2 3 - - 0.0 - - - - - - -
10/01:30am 6.2 SSE 2 3 - - 0.0 - - - - - - -
10/01:00am 7.8 SE 3 3 - - 0.0 - - - - - - -
10/12:30am 7.5 SSE 3 3 - - 0.0 - - - - - - -
10/12:00am 6.9 S 3 3 - - 0.0 - - - - - - -
 
Date/Time
CDT
Temp
°C
Wind Pressure Rain since
9am
mm
Weather Cloud Vis
km
Sea
Height
m
Swell
Dir  Spd
kts
Gust
kts
hPa Trend Height
m
Period
s
Dir
09/11:30pm 7.8 S 3 4 - - 0.0 - - - - - - -
09/11:00pm 8.6 SSE 4 4 - - 0.0 - - - - - - -
09/10:30pm 8.7 S 3 4 - - 0.0 - - - - - - -
09/10:00pm 8.8 S 3 4 - - 0.0 - - - - - - -
09/09:30pm 8.7 SSE 4 5 - - 0.0 - - - - - - -
09/09:00pm 9.4 SSE 5 6 - - 0.0 - - - - - - -
09/08:30pm 11.2 SSE 8 10 - - 0.0 - - - - - - -
09/08:00pm 12.5 SSE 9 12 - - 0.0 - - - - - - -
09/07:30pm 13.5 S 9 13 - - 0.0 - - - - - - -
09/07:00pm 14.1 S 10 13 - - 0.0 - - - - - - -
09/06:30pm 14.7 S 11 15 - - 0.0 - - - - - - -
09/06:00pm 15.9 S 10 13 - - 0.0 - - - - - - -
09/05:30pm 16.5 S 10 15 - - 0.0 - - - - - - -
09/05:00pm 17.2 S 10 14 - - 0.0 - - - - - - -
09/04:30pm 17.2 SSE 9 16 - - 0.0 - - - - - - -
09/04:00pm 17.3 S 8 13 - - 0.0 - - - - - - -
09/03:30pm 17.9 S 8 12 - - 0.0 - - - - - - -
09/03:00pm 18.1 SSE 8 14 - - 0.0 - - - - - - -
09/02:30pm 17.7 SE 8 13 - - 0.0 - - - - - - -
09/02:00pm 17.5 SW 6 11 - - 0.0 - - - - - - -
09/01:30pm 17.3 S 8 13 - - 0.0 - - - - - - -
09/01:00pm 17.5 S 8 14 - - 0.0 - - - - - - -
09/12:30pm 16.3 SSW 9 13 - - 0.0 - - - - - - -
09/12:00pm 16.4 SSE 7 14 - - 0.0 - - - - - - -
09/11:30am 17.5 SSE 9 13 - - 0.0 - - - - - - -
09/11:00am 16.5 S 8 14 - - 0.0 - - - - - - -
09/10:30am 14.3 S 9 13 - - 0.0 - - - - - - -
09/10:00am 14.3 SSW 10 16 - - 0.0 - - - - - - -
09/09:30am 14.7 S 9 13 - - 0.0 - - - - - - -
09/09:00am 13.9 SSW 11 17 - - 0.2 - - - - - - -
09/08:30am 13.5 SSW 9 13 - - 0.2 - - - - - - -
09/08:00am 12.7 S 10 13 - - 0.2 - - - - - - -
09/07:30am 12.2 S 7 10 - - 0.2 - - - - - - -
09/07:00am 11.7 SSW 5 6 - - 0.2 - - - - - - -
09/06:30am 11.3 SSW 5 8 - - 0.2 - - - - - - -
09/06:00am 11.3 S 8 13 - - 0.2 - - - - - - -
09/05:30am 11.2 S 8 12 - - 0.2 - - - - - - -
09/05:00am 11.1 S 7 10 - - 0.2 - - - - - - -
09/04:30am 11.3 SSW 10 12 - - 0.2 - - - - - - -
09/04:00am 11.1 SSW 6 8 - - 0.2 - - - - - - -
09/03:30am 10.9 SSW 8 13 - - 0.2 - - - - - - -
09/03:00am 11.2 SSW 10 15 - - 0.2 - - - - - - -
09/02:30am 10.9 SW 7 10 - - 0.2 - - - - - - -
09/02:00am 10.6 SSW 10 14 - - 0.2 - - - - - - -
09/01:30am 11.1 SSW 8 11 - - 0.2 - - - - - - -
09/01:00am 11.0 SSW 10 15 - - 0.2 - - - - - - -
09/12:30am 11.5 SSW 11 16 - - 0.2 - - - - - - -
09/12:00am 11.5 SSW 12 18 - - 0.2 - - - - - - -
 
Date/Time
CDT
Temp
°C
Wind Pressure Rain since
9am
mm
Weather Cloud Vis
km
Sea
Height
m
Swell
Dir  Spd
kts
Gust
kts
hPa Trend Height
m
Period
s
Dir
08/11:30pm 11.5 S 13 18 - - 0.2 - - - - - - -
08/11:00pm 11.5 SSW 14 20 - - 0.2 - - - - - - -
08/10:30pm 11.8 SSW 11 18 - - 0.2 - - - - - - -
08/10:00pm 11.6 SSW 13 19 - - 0.2 - - - - - - -
08/09:30pm 11.7 SSW 12 16 - - 0.2 - - - - - - -
08/09:00pm 11.8 SSW 12 16 - - 0.2 - - - - - - -
08/08:30pm 11.8 SSW 13 18 - - 0.2 - - - - - - -
08/08:00pm 12.5 SSW 17 25 - - 0.2 - - - - - - -
08/07:55pm 12.6 SSW 15 25 - - 0.2 - - - - - - -
08/07:30pm 12.9 SSW 16 25 - - 0.2 - - - - - - -
08/07:27pm 13.6 SW 15 25 - - 0.2 - - - - - - -
08/07:00pm 14.6 SW 17 25 - - 0.2 - - - - - - -
08/06:30pm 15.6 SW 17 23 - - 0.2 - - - - - - -
08/06:00pm 15.2 SW 17 25 - - 0.2 - - - - - - -
08/05:30pm 15.7 SW 17 25 - - 0.2 - - - - - - -
08/05:00pm 16.3 SSW 18 25 - - 0.2 - - - - - - -
08/04:30pm 16.0 SW 18 26 - - 0.2 - - - - - - -

Other Formats:

Comma delimited format used in spreadsheet applications
http://www.bom.gov.au/fwo/IDS60701/IDS60701.94807.axf

JavaScript Object Notation format (JSON) in row-major order
http://www.bom.gov.au/fwo/IDS60701/IDS60701.94807.json